Forside
METAR-TAF:

METAR-TAF

Lufthavne :

Carson City, Nevada, USA

Breddekreds: 39-11-32N, længdekreds: 119-44-04W, højde: 1432 m

Aktuelle vejr

Denne rapport blev lavet for 49 minutter siden, kl. 06:55 UTC
Vind stille
Temperatur 5°C
Fugtighed 35%
Tryk 1019 hPa
Sigt: 16.1 km
Spredte skyer i en højde af 6500 ft
Brudte skyer i en højde af 7500 ft
Overskyet i en højde af 9000 ft

METAR: KCXP 220655Z AUTO 00000KT 10SM SCT065 BKN075 OVC090 05/M09 A3010 RMK AO2

Tid: 23:44 (07:44 UTC)

Vejrudsigter

Denne rapport blev lavet for 2 timer og 16 minutter siden, kl. 05:28 UTC
Foreløbig gælder fra 22 på 06 UTC til 23 på 06 UTC
Vind 4 kt fra varierende retninger
Sigt: 10 km
Spredte skyer i en højde af 6000 ft
Brudte skyer i en højde af 10000 ft
Fra 22 på 2100 UTC
Vind 11 kt fra nordnordvest
Sigt: 10 km
Spredte skyer i en højde af 7000 ft
Fra 23 på 0300 UTC
Vind 3 kt fra varierende retninger
Sigt: 10 km
Spredte skyer i en højde af 20000 ft

TAF: KCXP 220528Z 2206/2306 VRB04KT P6SM SCT060 BKN100 FM222100 34011KT P6SM SCT070 FM230300 VRB03KT P6SM SCT200

Vejrobservationer og prognoser fra mere end 4000 lufthavne (METAR og TAF).

De gule og røde prikker repræsenterer de meteorologiske stationer.

Flyt musen over at se navnet på stationen.

Så klik over at se vejr observationer og prognoser.

At skifte det kort: Klik på de grønne knapper med et sort kors for at zoome ind; på den grønne knap med en bindestreg for at zoome ud; eller på de grønne pile for tilstødende kort.


METAR-TAF: